createdAt,value
2022-08-17T00:01:02.676Z,75.66
2022-08-17T00:03:41.261Z,75.38
2022-08-17T00:06:37.161Z,75.83
2022-08-17T00:09:11.095Z,76.22
2022-08-17T00:12:40.944Z,76.56
2022-08-17T00:14:45.652Z,76.79
2022-08-17T00:17:18.948Z,76.84
2022-08-17T00:19:51.825Z,76.75
2022-08-17T00:22:31.088Z,76.68
2022-08-17T00:25:13.633Z,76.81
2022-08-17T00:27:46.339Z,77.08
2022-08-17T00:30:19.071Z,77.37
2022-08-17T00:33:14.623Z,77.54
2022-08-17T00:35:44.919Z,77.27
2022-08-17T00:38:18.312Z,77.04
2022-08-17T00:40:58.979Z,77.33
2022-08-17T00:43:59.272Z,77.98
2022-08-17T00:46:34.877Z,78.80
2022-08-17T00:49:09.368Z,79.08
2022-08-17T00:52:00.478Z,79.30
2022-08-17T00:54:41.902Z,78.90
2022-08-17T00:57:23.019Z,79.74
2022-08-17T01:00:02.355Z,79.03
2022-08-17T01:02:42.265Z,78.82
2022-08-17T01:05:27.731Z,79.25
2022-08-17T01:08:03.140Z,79.50
2022-08-17T01:10:58.443Z,79.39
2022-08-17T01:13:41.859Z,78.69
2022-08-17T01:16:35.035Z,79.02
2022-08-17T01:19:21.703Z,77.99
2022-08-17T01:22:08.336Z,78.13
2022-08-17T01:24:46.361Z,78.59
2022-08-17T01:27:20.552Z,78.38
2022-08-17T01:29:59.336Z,78.39
2022-08-17T01:32:32.351Z,77.83
2022-08-17T01:35:06.266Z,77.80
2022-08-17T01:37:42.329Z,77.76
2022-08-17T01:40:34.420Z,77.49
2022-08-17T01:43:36.358Z,77.84
2022-08-17T01:46:09.480Z,77.61
2022-08-17T01:48:42.759Z,77.46
2022-08-17T01:51:17.236Z,77.50
2022-08-17T01:53:54.577Z,76.87
2022-08-17T01:56:30.620Z,77.08
2022-08-17T01:59:04.107Z,78.17
2022-08-17T02:01:38.487Z,78.06
2022-08-17T02:04:12.026Z,78.08
2022-08-17T02:06:54.148Z,77.93
2022-08-17T02:09:29.526Z,77.79
2022-08-17T02:12:37.811Z,77.58
2022-08-17T02:14:57.817Z,77.31
2022-08-17T02:17:30.538Z,77.97
2022-08-17T02:20:03.297Z,77.40
2022-08-17T02:22:37.669Z,77.90
2022-08-17T02:25:13.771Z,77.77
2022-08-17T02:27:46.383Z,77.85
2022-08-17T02:30:59.242Z,77.48
2022-08-17T02:33:13.215Z,77.67
2022-08-17T02:35:45.930Z,77.10
2022-08-17T02:38:18.889Z,77.09
2022-08-17T02:40:51.717Z,76.98
2022-08-17T02:43:24.329Z,77.00
2022-08-17T02:45:57.732Z,76.84
2022-08-17T02:48:31.149Z,77.47
2022-08-17T02:51:04.412Z,77.47
2022-08-17T02:53:37.551Z,76.67
2022-08-17T02:56:10.421Z,76.88
2022-08-17T02:58:43.482Z,77.01
2022-08-17T03:01:16.238Z,76.67
2022-08-17T03:03:49.403Z,77.03
2022-08-17T03:06:21.936Z,77.17
2022-08-17T03:08:54.716Z,76.55
2022-08-17T03:11:27.341Z,77.24
2022-08-17T03:14:00.617Z,76.84
2022-08-17T03:16:33.073Z,76.92
2022-08-17T03:19:06.024Z,76.60
2022-08-17T03:21:38.862Z,76.56
2022-08-17T03:24:11.333Z,76.12
2022-08-17T03:26:44.346Z,76.39
2022-08-17T03:29:20.381Z,75.98
2022-08-17T03:31:53.815Z,75.37
2022-08-17T03:34:26.421Z,75.56
2022-08-17T03:36:59.143Z,75.31
2022-08-17T03:39:31.795Z,75.53
2022-08-17T03:42:31.422Z,75.00
2022-08-17T03:45:05.123Z,75.58
2022-08-17T03:47:56.206Z,75.16
2022-08-17T03:50:47.486Z,74.98
2022-08-17T03:53:38.655Z,74.86
2022-08-17T03:56:29.634Z,75.27
2022-08-17T03:59:02.091Z,74.87
2022-08-17T04:01:35.136Z,74.56
2022-08-17T04:04:09.792Z,74.18
2022-08-17T04:06:43.655Z,74.13
2022-08-17T04:09:16.798Z,74.70
2022-08-17T04:11:49.794Z,74.03
2022-08-17T04:14:23.081Z,74.05
2022-08-17T04:16:55.624Z,74.21
2022-08-17T04:19:28.082Z,74.18
2022-08-17T04:22:01.086Z,74.06
2022-08-17T04:24:34.977Z,73.91
2022-08-17T04:27:07.597Z,73.77
2022-08-17T04:29:54.449Z,74.33
2022-08-17T04:33:00.516Z,74.08
2022-08-17T04:35:24.248Z,74.60
2022-08-17T04:37:57.018Z,74.15
2022-08-17T04:40:48.537Z,74.46
2022-08-17T04:43:24.317Z,74.29
2022-08-17T04:46:00.425Z,74.74
2022-08-17T04:48:37.369Z,74.39
2022-08-17T04:51:20.412Z,75.10
2022-08-17T04:53:56.011Z,75.35
2022-08-17T04:56:30.358Z,72.95
2022-08-17T04:59:06.698Z,72.29
2022-08-17T05:01:41.489Z,71.10
2022-08-17T05:04:21.466Z,70.35
2022-08-17T05:07:06.235Z,68.83
2022-08-17T05:09:38.772Z,67.10
2022-08-17T05:12:11.365Z,66.76
2022-08-17T05:14:43.992Z,64.98
2022-08-17T05:17:17.063Z,64.37
2022-08-17T05:19:51.947Z,63.47
2022-08-17T05:22:24.839Z,62.62
2022-08-17T05:24:57.398Z,62.05
2022-08-17T05:27:34.426Z,61.21
2022-08-17T05:30:09.461Z,60.44
2022-08-17T05:32:42.058Z,60.24
2022-08-17T05:35:14.753Z,59.54
2022-08-17T05:37:48.116Z,59.00
2022-08-17T05:40:22.244Z,58.74
2022-08-17T05:43:16.120Z,58.14
2022-08-17T05:45:57.277Z,57.46
2022-08-17T05:48:35.727Z,57.41
2022-08-17T05:51:30.422Z,56.69
2022-08-17T05:54:18.288Z,56.17
2022-08-17T05:57:15.550Z,56.12
2022-08-17T05:59:51.757Z,55.30
2022-08-17T06:02:24.459Z,54.92
2022-08-17T06:05:11.993Z,54.96
2022-08-17T06:07:50.387Z,54.75
2022-08-17T06:10:44.822Z,54.61
2022-08-17T06:13:47.606Z,54.08
2022-08-17T06:16:34.183Z,53.89
2022-08-17T06:19:26.329Z,53.49
2022-08-17T06:22:00.112Z,53.62
2022-08-17T06:25:04.782Z,53.26
2022-08-17T06:27:45.313Z,52.66
2022-08-17T06:30:29.094Z,52.68
2022-08-17T06:33:31.801Z,51.70
2022-08-17T06:36:30.776Z,52.10
2022-08-17T06:39:44.748Z,52.33
2022-08-17T06:43:04.073Z,51.90
2022-08-17T06:45:40.807Z,51.69
2022-08-17T06:48:25.861Z,51.03
2022-08-17T06:51:20.072Z,51.25
2022-08-17T06:54:02.121Z,51.05
2022-08-17T06:57:01.396Z,51.11
2022-08-17T06:59:55.109Z,50.28
2022-08-17T07:02:52.317Z,49.97
2022-08-17T07:05:42.870Z,49.86
2022-08-17T07:08:16.049Z,49.64
2022-08-17T07:11:03.902Z,49.72
2022-08-17T07:13:51.167Z,49.97
2022-08-17T07:16:37.821Z,50.11
2022-08-17T07:19:11.660Z,50.77
2022-08-17T07:21:49.751Z,50.22
2022-08-17T07:24:52.875Z,50.87
2022-08-17T07:27:40.186Z,50.03
2022-08-17T07:30:20.825Z,50.40
2022-08-17T07:32:58.734Z,50.05
2022-08-17T07:35:40.756Z,49.26
2022-08-17T07:38:31.947Z,49.40
2022-08-17T07:41:08.992Z,49.67
2022-08-17T07:43:44.332Z,48.94
2022-08-17T07:46:38.041Z,49.38
2022-08-17T07:49:16.437Z,48.97
2022-08-17T07:51:51.923Z,48.84
2022-08-17T07:54:42.056Z,49.35
2022-08-17T07:57:14.496Z,49.23
2022-08-17T08:00:18.097Z,49.44
2022-08-17T08:03:05.485Z,49.06
2022-08-17T08:05:51.239Z,49.36
2022-08-17T08:08:35.089Z,48.72
2022-08-17T08:11:33.247Z,49.36
2022-08-17T08:14:39.671Z,49.58
2022-08-17T08:17:12.965Z,50.34
2022-08-17T08:19:46.003Z,50.58
2022-08-17T08:22:30.259Z,51.71
2022-08-17T08:25:06.771Z,53.10
2022-08-17T08:27:45.662Z,60.38
2022-08-17T08:30:23.290Z,63.84
2022-08-17T08:33:43.116Z,65.78
2022-08-17T08:37:14.337Z,67.35
2022-08-17T08:40:27.799Z,69.97
2022-08-17T08:43:23.775Z,69.64
2022-08-17T08:46:11.519Z,70.43
2022-08-17T08:48:56.895Z,70.50
2022-08-17T08:51:54.578Z,70.14
2022-08-17T08:54:37.914Z,71.05
2022-08-17T08:57:26.733Z,71.20
2022-08-17T09:00:16.219Z,71.54
2022-08-17T09:03:15.919Z,71.78
2022-08-17T09:06:33.496Z,71.76
2022-08-17T09:09:20.791Z,72.55
2022-08-17T09:12:06.403Z,72.10
2022-08-17T09:15:20.333Z,72.79
2022-08-17T09:19:03.191Z,72.98
2022-08-17T09:21:35.237Z,72.74
2022-08-17T09:24:25.487Z,71.96
2022-08-17T09:27:04.294Z,72.88
2022-08-17T09:29:41.589Z,72.89
2022-08-17T09:32:30.115Z,72.69
2022-08-17T09:35:14.583Z,71.35
2022-08-17T09:37:53.007Z,71.22
2022-08-17T09:40:27.861Z,70.19
2022-08-17T09:43:15.336Z,70.83
2022-08-17T09:45:55.734Z,70.09
2022-08-17T09:48:56.791Z,70.52
2022-08-17T09:51:58.616Z,69.01
2022-08-17T09:54:41.105Z,70.00
2022-08-17T09:57:39.242Z,70.03
2022-08-17T10:00:25.197Z,70.79
2022-08-17T10:03:04.441Z,70.42
2022-08-17T10:06:09.777Z,71.97
2022-08-17T10:08:54.488Z,71.83
2022-08-17T10:12:03.513Z,72.19
2022-08-17T10:15:00.148Z,71.99
2022-08-17T10:18:17.355Z,71.00
2022-08-17T10:21:26.256Z,71.78
2022-08-17T10:25:21.025Z,71.47
2022-08-17T10:27:59.496Z,69.95
2022-08-17T10:30:36.326Z,70.22
2022-08-17T10:33:19.524Z,70.40
2022-08-17T10:36:05.334Z,68.06
2022-08-17T10:39:01.330Z,69.95
2022-08-17T10:41:49.073Z,70.82
2022-08-17T10:44:43.847Z,69.70
2022-08-17T10:47:21.403Z,70.44
2022-08-17T10:49:57.393Z,70.63
2022-08-17T10:52:32.934Z,70.92
2022-08-17T10:55:16.311Z,70.33
2022-08-17T10:57:51.819Z,70.43
2022-08-17T11:00:29.115Z,70.79
2022-08-17T11:03:02.531Z,69.96
2022-08-17T11:06:01.836Z,70.69
2022-08-17T11:09:13.062Z,72.19
2022-08-17T11:12:00.140Z,72.93
2022-08-17T11:15:02.583Z,72.44
2022-08-17T11:17:51.763Z,71.14
2022-08-17T11:20:36.451Z,70.66
2022-08-17T11:23:46.467Z,70.21
2022-08-17T11:26:50.210Z,69.74
2022-08-17T11:29:31.636Z,69.36
2022-08-17T11:32:11.186Z,69.31
2022-08-17T11:34:45.948Z,69.05
2022-08-17T11:37:33.619Z,68.58
2022-08-17T11:40:27.459Z,68.73
2022-08-17T11:43:12.890Z,68.24
2022-08-17T11:45:59.367Z,68.18
2022-08-17T11:49:28.021Z,68.18
2022-08-17T11:52:03.276Z,68.00
2022-08-17T11:54:40.607Z,67.75
2022-08-17T11:57:28.527Z,67.83
2022-08-17T12:00:12.589Z,68.00
2022-08-17T12:02:48.633Z,67.64
2022-08-17T12:05:28.583Z,67.55
2022-08-17T12:08:13.478Z,67.29
2022-08-17T12:11:58.789Z,67.89
2022-08-17T12:15:05.666Z,67.66
2022-08-17T12:17:40.092Z,67.12
2022-08-17T12:20:32.739Z,67.76
2022-08-17T12:23:23.076Z,67.68
2022-08-17T12:26:10.397Z,68.02
2022-08-17T12:28:49.430Z,67.91
2022-08-17T12:31:30.240Z,67.50
2022-08-17T12:34:05.744Z,67.84
2022-08-17T12:36:42.808Z,67.62
2022-08-17T12:39:22.032Z,68.08
2022-08-17T12:42:02.386Z,69.67
2022-08-17T12:44:40.484Z,68.74
2022-08-17T12:47:23.776Z,70.73
2022-08-17T12:50:05.636Z,71.85
2022-08-17T12:52:42.518Z,72.28
2022-08-17T12:55:26.242Z,72.44
2022-08-17T12:58:05.325Z,72.23
2022-08-17T13:00:47.266Z,72.30
2022-08-17T13:03:24.136Z,74.00
2022-08-17T13:06:00.836Z,73.26
2022-08-17T13:08:37.998Z,71.12
2022-08-17T13:11:25.557Z,70.64
2022-08-17T13:14:09.949Z,69.87
2022-08-17T13:16:42.528Z,69.88
2022-08-17T13:19:17.998Z,69.19
2022-08-17T13:22:04.057Z,69.03
2022-08-17T13:24:38.247Z,68.40
2022-08-17T13:27:16.834Z,67.65
2022-08-17T13:29:55.114Z,67.90
2022-08-17T13:32:44.989Z,67.30
2022-08-17T13:35:41.928Z,67.50
2022-08-17T13:38:39.092Z,66.25
2022-08-17T13:41:35.296Z,66.35
2022-08-17T13:44:40.744Z,66.58
2022-08-17T13:47:21.949Z,67.48
2022-08-17T13:49:56.763Z,68.31
2022-08-17T13:52:41.416Z,67.63
2022-08-17T13:55:24.190Z,66.44
2022-08-17T13:58:03.888Z,67.36
2022-08-17T14:00:41.000Z,69.22
2022-08-17T14:03:13.513Z,68.01
2022-08-17T14:05:47.486Z,67.10
2022-08-17T14:08:22.403Z,66.95
2022-08-17T14:11:00.181Z,66.88
2022-08-17T14:13:33.628Z,66.26
2022-08-17T14:16:06.442Z,64.99
2022-08-17T14:18:56.155Z,63.73
2022-08-17T14:21:29.958Z,62.79
2022-08-17T14:24:02.645Z,63.69
2022-08-17T14:26:35.851Z,64.24
2022-08-17T14:29:15.122Z,62.96
2022-08-17T14:31:54.407Z,61.98
2022-08-17T14:34:27.931Z,61.70
2022-08-17T14:37:01.004Z,61.10
2022-08-17T14:39:34.282Z,60.28
2022-08-17T14:42:07.103Z,59.53
2022-08-17T14:44:41.225Z,59.31
2022-08-17T14:47:17.225Z,58.31
2022-08-17T14:49:50.733Z,57.88
2022-08-17T14:52:23.511Z,56.94
2022-08-17T14:54:56.304Z,56.75
2022-08-17T14:57:34.118Z,56.83
2022-08-17T15:00:08.803Z,56.07
2022-08-17T15:02:56.906Z,55.65
2022-08-17T15:05:35.996Z,56.46
2022-08-17T15:08:09.279Z,55.91
2022-08-17T15:10:41.811Z,55.05
2022-08-17T15:13:25.816Z,53.49
2022-08-17T15:16:00.628Z,54.17
2022-08-17T15:18:33.491Z,54.30
2022-08-17T15:21:07.362Z,53.32
2022-08-17T15:23:41.292Z,53.46
2022-08-17T15:26:16.057Z,52.37
2022-08-17T15:28:54.234Z,52.02
2022-08-17T15:31:31.953Z,51.62
2022-08-17T15:34:07.939Z,51.94
2022-08-17T15:36:49.194Z,52.37
2022-08-17T15:39:22.011Z,51.63
2022-08-17T15:41:58.683Z,51.48
2022-08-17T15:44:34.883Z,51.74
2022-08-17T15:47:07.866Z,52.33
2022-08-17T15:49:42.601Z,51.33
2022-08-17T15:52:26.908Z,50.23
2022-08-17T15:55:01.933Z,50.78
2022-08-17T15:57:35.239Z,51.11
2022-08-17T16:00:11.074Z,49.75
2022-08-17T16:03:15.106Z,50.11
2022-08-17T16:05:40.865Z,50.11
2022-08-17T16:08:17.090Z,49.70
2022-08-17T16:10:52.967Z,49.21
2022-08-17T16:13:25.533Z,49.22
2022-08-17T16:15:59.531Z,49.42
2022-08-17T16:18:33.005Z,49.13
2022-08-17T16:21:28.157Z,48.57
2022-08-17T16:24:13.686Z,48.18
2022-08-17T16:26:47.584Z,48.33
2022-08-17T16:29:20.758Z,48.80
2022-08-17T16:31:53.905Z,48.28
2022-08-17T16:34:26.797Z,48.06
2022-08-17T16:36:59.409Z,48.19
2022-08-17T16:39:32.799Z,48.33
2022-08-17T16:42:06.733Z,48.16
2022-08-17T16:44:39.272Z,48.26
2022-08-17T16:47:12.043Z,47.72
2022-08-17T16:49:45.030Z,48.31
2022-08-17T16:52:32.153Z,47.15
2022-08-17T16:55:07.836Z,47.34
2022-08-17T16:57:47.432Z,47.35
2022-08-17T17:00:23.647Z,47.76
2022-08-17T17:02:57.335Z,47.17
2022-08-17T17:05:57.679Z,46.80
2022-08-17T17:08:49.874Z,46.74
2022-08-17T17:11:28.606Z,46.83
2022-08-17T17:14:04.036Z,47.03
2022-08-17T17:16:47.191Z,46.38
2022-08-17T17:19:26.317Z,47.81
2022-08-17T17:22:22.232Z,46.63
2022-08-17T17:25:16.378Z,46.79
2022-08-17T17:28:09.563Z,46.13
2022-08-17T17:31:15.977Z,46.09
2022-08-17T17:33:58.406Z,46.28
2022-08-17T17:36:47.098Z,45.92
2022-08-17T17:39:22.446Z,46.64
2022-08-17T17:42:01.434Z,45.83
2022-08-17T17:44:40.691Z,45.98
2022-08-17T17:47:14.560Z,46.08
2022-08-17T17:49:52.607Z,45.61
2022-08-17T17:53:06.083Z,45.47
2022-08-17T17:55:50.957Z,45.65
2022-08-17T17:58:46.666Z,45.99
2022-08-17T18:01:51.401Z,45.97
2022-08-17T18:04:26.302Z,45.41
2022-08-17T18:07:14.415Z,46.03
2022-08-17T18:10:19.421Z,45.72
2022-08-17T18:13:09.852Z,46.07
2022-08-17T18:15:55.863Z,45.75
2022-08-17T18:18:49.466Z,45.71
2022-08-17T18:21:30.830Z,45.72
2022-08-17T18:24:07.310Z,46.13
2022-08-17T18:26:44.937Z,46.18
2022-08-17T18:29:44.757Z,45.00
2022-08-17T18:32:31.088Z,45.44
2022-08-17T18:35:15.809Z,44.84
2022-08-17T18:37:51.777Z,45.27
2022-08-17T18:40:35.915Z,45.45
2022-08-17T18:43:53.343Z,45.64
2022-08-17T18:46:38.205Z,45.51
2022-08-17T18:49:28.758Z,45.06
2022-08-17T18:52:18.092Z,45.09
2022-08-17T18:55:16.408Z,45.20
2022-08-17T18:57:53.701Z,45.51
2022-08-17T19:00:32.433Z,45.58
2022-08-17T19:03:23.910Z,45.38
2022-08-17T19:06:28.465Z,45.06
2022-08-17T19:09:02.718Z,45.64
2022-08-17T19:11:37.359Z,45.32
2022-08-17T19:14:13.992Z,44.92
2022-08-17T19:16:53.310Z,44.97
2022-08-17T19:19:54.434Z,44.75
2022-08-17T19:22:45.485Z,44.90
2022-08-17T19:25:25.041Z,45.07
2022-08-17T19:28:22.121Z,45.11
2022-08-17T19:31:05.962Z,44.89
2022-08-17T19:33:39.121Z,45.12
2022-08-17T19:36:39.948Z,44.99
2022-08-17T19:39:17.806Z,44.95
2022-08-17T19:42:05.716Z,44.90
2022-08-17T19:44:44.687Z,45.08
2022-08-17T19:47:50.909Z,44.96
2022-08-17T19:50:31.804Z,45.59
2022-08-17T19:53:13.039Z,44.63
2022-08-17T19:56:22.072Z,44.87
2022-08-17T19:59:23.427Z,44.68
2022-08-17T20:02:04.418Z,44.69
2022-08-17T20:04:45.045Z,45.06
2022-08-17T20:07:32.176Z,45.00
2022-08-17T20:10:13.474Z,44.73
2022-08-17T20:12:47.706Z,45.57
2022-08-17T20:15:31.037Z,44.51
2022-08-17T20:18:10.935Z,44.60
2022-08-17T20:20:43.800Z,44.96
2022-08-17T20:23:31.916Z,44.41
2022-08-17T20:26:18.521Z,44.70
2022-08-17T20:29:06.972Z,44.35
2022-08-17T20:31:45.905Z,44.72
2022-08-17T20:34:30.875Z,44.33
2022-08-17T20:37:30.359Z,44.36
2022-08-17T20:40:02.907Z,44.91
2022-08-17T20:42:36.729Z,45.17
2022-08-17T20:45:27.592Z,44.46
2022-08-17T20:48:36.913Z,44.82
2022-08-17T20:51:40.784Z,44.20
2022-08-17T20:54:19.617Z,44.71
2022-08-17T20:56:57.863Z,44.99
2022-08-17T20:59:32.177Z,44.71
2022-08-17T21:02:19.062Z,44.64
2022-08-17T21:04:55.742Z,44.68
2022-08-17T21:07:33.160Z,44.63
2022-08-17T21:10:23.590Z,44.76
2022-08-17T21:13:01.177Z,44.65
2022-08-17T21:16:00.557Z,44.06
2022-08-17T21:18:57.325Z,44.56
2022-08-17T21:21:54.591Z,44.49
2022-08-17T21:24:53.799Z,44.35
2022-08-17T21:27:35.565Z,44.75
2022-08-17T21:30:09.505Z,44.86
2022-08-17T21:32:45.747Z,44.68
2022-08-17T21:35:48.047Z,44.72
2022-08-17T21:38:24.970Z,44.58
2022-08-17T21:40:57.557Z,44.53
2022-08-17T21:43:34.746Z,44.78
2022-08-17T21:46:24.870Z,44.23
2022-08-17T21:49:04.428Z,44.68
2022-08-17T21:51:58.547Z,44.30
2022-08-17T21:54:43.980Z,44.58
2022-08-17T21:57:28.853Z,44.51
2022-08-17T22:00:05.465Z,44.63
2022-08-17T22:02:39.966Z,44.36
2022-08-17T22:05:18.033Z,44.39
2022-08-17T22:08:01.404Z,44.52
2022-08-17T22:10:36.724Z,44.63
2022-08-17T22:13:16.444Z,44.74
2022-08-17T22:16:28.073Z,44.46
2022-08-17T22:19:02.101Z,44.44
2022-08-17T22:21:34.851Z,44.22
2022-08-17T22:24:21.788Z,44.23
2022-08-17T22:27:11.785Z,44.03
2022-08-17T22:29:57.500Z,43.97
2022-08-17T22:32:35.830Z,44.25
2022-08-17T22:35:34.032Z,44.22
2022-08-17T22:38:39.591Z,44.55
2022-08-17T22:41:18.980Z,44.55
2022-08-17T22:43:52.901Z,44.29
2022-08-17T22:46:27.686Z,43.96
2022-08-17T22:49:01.851Z,44.28
2022-08-17T22:51:34.589Z,44.28
2022-08-17T22:54:37.857Z,44.16
2022-08-17T22:57:34.651Z,44.09
2022-08-17T23:00:27.495Z,44.45
2022-08-17T23:03:19.995Z,44.50
2022-08-17T23:06:08.167Z,45.31
2022-08-17T23:08:52.798Z,45.45
2022-08-17T23:11:43.007Z,45.20
2022-08-17T23:14:23.872Z,45.56
2022-08-17T23:16:56.640Z,46.10
2022-08-17T23:19:32.842Z,46.04
2022-08-17T23:22:09.974Z,46.54
2022-08-17T23:24:51.861Z,47.32
2022-08-17T23:27:29.113Z,47.85
2022-08-17T23:30:02.545Z,47.46
2022-08-17T23:32:38.037Z,48.54
2022-08-17T23:35:39.317Z,48.91
2022-08-17T23:38:15.283Z,51.38
2022-08-17T23:40:48.191Z,52.74
2022-08-17T23:43:24.180Z,55.64
2022-08-17T23:46:01.099Z,55.27
2022-08-17T23:48:35.552Z,55.21
2022-08-17T23:51:20.972Z,57.25
2022-08-17T23:54:07.338Z,58.63
2022-08-17T23:56:48.325Z,57.34
2022-08-17T23:59:23.995Z,57.63
